EDLV

Niederrhein Airport

Weeze, Germany
METAR EDLV 232220Z 07006KT 010V120 CAVOK M01/M07 Q1022
Observed Flight Rules
Feb-23 @ 22:20 UTC (12 minutes ago) Visual Flight Rules
Wind Visibility Clouds
70° at 6 knots 10,000+ meters
  • Clear skies
Temperatures Readings
Current -1°C / 30°F
Dewpoint -7°C / 19°F
Humidity 64%
Altimeter 30.18" Hg
Pressure 1022 hPa
Elevation 32
METAR EDLV 232220Z 07006KT 010V120 CAVOK M01/M07 Q1022
Observed Flight Rules
Feb-23 @ 22:20 UTC
(12 minutes ago)
VFR
Wind Visibility
70° at 6 knots 10,000+ meters
Clouds
  • Clear skies
Temperature Dewpoint
-1°C / 30°F -7°C / 19°F
Humidity Altimeter Pressure
64% 30.18" Hg 1022 hPa